sensor_id;sensor_type;location;lat;lon;timestamp;pressure;altitude;pressure_sealevel;temperature;humidity
21100;BME280;10708;50.824;4.408;2023-01-04T00:04:08;101094.97;;;8.49;100.00
21100;BME280;10708;50.824;4.408;2023-01-04T00:09:10;101097.50;;;8.54;100.00
21100;BME280;10708;50.824;4.408;2023-01-04T00:14:13;101094.03;;;8.54;100.00
21100;BME280;10708;50.824;4.408;2023-01-04T00:19:18;101096.59;;;8.57;100.00
21100;BME280;10708;50.824;4.408;2023-01-04T00:24:20;101075.59;;;8.57;100.00
21100;BME280;10708;50.824;4.408;2023-01-04T00:29:23;101073.78;;;8.59;100.00
21100;BME280;10708;50.824;4.408;2023-01-04T00:34:27;101057.94;;;8.63;100.00
21100;BME280;10708;50.824;4.408;2023-01-04T00:39:29;101068.41;;;8.66;100.00
21100;BME280;10708;50.824;4.408;2023-01-04T00:44:33;101045.56;;;8.70;100.00
21100;BME280;10708;50.824;4.408;2023-01-04T00:49:37;101049.88;;;8.72;100.00
21100;BME280;10708;50.824;4.408;2023-01-04T00:54:39;101054.25;;;8.73;100.00
21100;BME280;10708;50.824;4.408;2023-01-04T00:59:42;101044.59;;;8.74;100.00
21100;BME280;10708;50.824;4.408;2023-01-04T01:04:46;101037.63;;;8.73;100.00
21100;BME280;10708;50.824;4.408;2023-01-04T01:09:48;101034.09;;;8.74;100.00
21100;BME280;10708;50.824;4.408;2023-01-04T01:14:50;101035.84;;;8.75;100.00
21100;BME280;10708;50.824;4.408;2023-01-04T01:19:54;101020.94;;;8.75;100.00
21100;BME280;10708;50.824;4.408;2023-01-04T01:24:56;101031.34;;;8.80;100.00
21100;BME280;10708;50.824;4.408;2023-01-04T01:29:59;101032.19;;;8.80;100.00
21100;BME280;10708;50.824;4.408;2023-01-04T01:35:03;101026.00;;;8.84;100.00
21100;BME280;10708;50.824;4.408;2023-01-04T01:40:06;101032.00;;;8.89;100.00
21100;BME280;10708;50.824;4.408;2023-01-04T01:45:21;101028.44;;;8.94;100.00
21100;BME280;10708;50.824;4.408;2023-01-04T01:50:28;101022.22;;;8.98;100.00
21100;BME280;10708;50.824;4.408;2023-01-04T01:55:33;101022.09;;;9.02;100.00
21100;BME280;10708;50.824;4.408;2023-01-04T02:00:36;101024.69;;;9.05;100.00
21100;BME280;10708;50.824;4.408;2023-01-04T02:05:41;101013.13;;;9.12;100.00
21100;BME280;10708;50.824;4.408;2023-01-04T02:10:44;101011.19;;;9.19;100.00
21100;BME280;10708;50.824;4.408;2023-01-04T02:16:03;100996.19;;;9.25;100.00
21100;BME280;10708;50.824;4.408;2023-01-04T02:21:14;101001.34;;;9.29;100.00
21100;BME280;10708;50.824;4.408;2023-01-04T02:31:57;100989.78;;;9.37;100.00
21100;BME280;10708;50.824;4.408;2023-01-04T02:37:09;100990.47;;;9.44;100.00
21100;BME280;10708;50.824;4.408;2023-01-04T02:42:23;101005.13;;;9.54;100.00
21100;BME280;10708;50.824;4.408;2023-01-04T02:47:49;100987.38;;;9.62;100.00
21100;BME280;10708;50.824;4.408;2023-01-04T02:53:12;100985.59;;;9.64;100.00
21100;BME280;10708;50.824;4.408;2023-01-04T02:58:30;100982.94;;;9.66;100.00
21100;BME280;10708;50.824;4.408;2023-01-04T03:03:46;100976.66;;;9.70;100.00
21100;BME280;10708;50.824;4.408;2023-01-04T03:09:13;100973.88;;;9.77;100.00
21100;BME280;10708;50.824;4.408;2023-01-04T03:14:19;100964.88;;;9.86;100.00
21100;BME280;10708;50.824;4.408;2023-01-04T03:19:24;100966.50;;;9.90;100.00
21100;BME280;10708;50.824;4.408;2023-01-04T03:24:42;100952.38;;;9.94;100.00
21100;BME280;10708;50.824;4.408;2023-01-04T03:30:05;100943.56;;;9.95;100.00
21100;BME280;10708;50.824;4.408;2023-01-04T03:35:43;100937.44;;;9.94;100.00
21100;BME280;10708;50.824;4.408;2023-01-04T03:40:53;100924.22;;;9.97;100.00
21100;BME280;10708;50.824;4.408;2023-01-04T03:46:18;100909.16;;;10.03;100.00
21100;BME280;10708;50.824;4.408;2023-01-04T03:51:43;100907.31;;;10.06;100.00
21100;BME280;10708;50.824;4.408;2023-01-04T03:56:47;100898.25;;;10.16;100.00
21100;BME280;10708;50.824;4.408;2023-01-04T04:01:51;100908.69;;;10.19;100.00
21100;BME280;10708;50.824;4.408;2023-01-04T04:06:55;100913.88;;;10.22;100.00
21100;BME280;10708;50.824;4.408;2023-01-04T04:12:14;100889.16;;;10.28;100.00
21100;BME280;10708;50.824;4.408;2023-01-04T04:17:17;100891.72;;;10.29;100.00
21100;BME280;10708;50.824;4.408;2023-01-04T04:22:21;100899.47;;;10.35;100.00
21100;BME280;10708;50.824;4.408;2023-01-04T04:27:23;100886.16;;;10.40;100.00
21100;BME280;10708;50.824;4.408;2023-01-04T04:32:25;100884.28;;;10.44;100.00
21100;BME280;10708;50.824;4.408;2023-01-04T04:37:29;100871.91;;;10.47;100.00
21100;BME280;10708;50.824;4.408;2023-01-04T04:42:34;100851.53;;;10.52;100.00
21100;BME280;10708;50.824;4.408;2023-01-04T04:47:36;100859.44;;;10.52;100.00
21100;BME280;10708;50.824;4.408;2023-01-04T04:52:40;100862.00;;;10.55;100.00
21100;BME280;10708;50.824;4.408;2023-01-04T04:57:42;100846.03;;;10.60;100.00
21100;BME280;10708;50.824;4.408;2023-01-04T05:02:44;100843.28;;;10.64;100.00
21100;BME280;10708;50.824;4.408;2023-01-04T05:07:48;100842.19;;;10.70;100.00
21100;BME280;10708;50.824;4.408;2023-01-04T05:12:50;100841.28;;;10.71;100.00
21100;BME280;10708;50.824;4.408;2023-01-04T05:18:03;100826.22;;;10.76;100.00
21100;BME280;10708;50.824;4.408;2023-01-04T05:23:08;100819.06;;;10.80;100.00
21100;BME280;10708;50.824;4.408;2023-01-04T05:28:11;100828.69;;;10.81;100.00
21100;BME280;10708;50.824;4.408;2023-01-04T05:33:13;100811.09;;;10.81;100.00
21100;BME280;10708;50.824;4.408;2023-01-04T05:38:17;100826.06;;;10.81;100.00
21100;BME280;10708;50.824;4.408;2023-01-04T05:43:21;100811.88;;;10.85;100.00
21100;BME280;10708;50.824;4.408;2023-01-04T05:48:24;100807.25;;;10.91;100.00
21100;BME280;10708;50.824;4.408;2023-01-04T05:53:28;100806.41;;;10.91;100.00
21100;BME280;10708;50.824;4.408;2023-01-04T05:58:30;100803.75;;;10.91;100.00
21100;BME280;10708;50.824;4.408;2023-01-04T06:03:33;100813.22;;;10.98;100.00
21100;BME280;10708;50.824;4.408;2023-01-04T06:08:37;100819.25;;;11.00;100.00
21100;BME280;10708;50.824;4.408;2023-01-04T06:13:41;100839.25;;;11.07;100.00
21100;BME280;10708;50.824;4.408;2023-01-04T06:18:43;100839.44;;;11.01;100.00
21100;BME280;10708;50.824;4.408;2023-01-04T06:23:47;100854.59;;;10.94;100.00
21100;BME280;10708;50.824;4.408;2023-01-04T06:28:49;100848.47;;;10.94;100.00
21100;BME280;10708;50.824;4.408;2023-01-04T06:33:52;100828.28;;;10.93;100.00
21100;BME280;10708;50.824;4.408;2023-01-04T06:38:57;100834.34;;;10.96;100.00
21100;BME280;10708;50.824;4.408;2023-01-04T06:44:00;100839.66;;;10.95;100.00
21100;BME280;10708;50.824;4.408;2023-01-04T06:49:02;100850.16;;;10.96;100.00
21100;BME280;10708;50.824;4.408;2023-01-04T06:54:08;100811.47;;;10.97;100.00
21100;BME280;10708;50.824;4.408;2023-01-04T06:59:12;100812.22;;;11.00;100.00
21100;BME280;10708;50.824;4.408;2023-01-04T07:04:14;100793.72;;;11.02;100.00
21100;BME280;10708;50.824;4.408;2023-01-04T07:09:18;100798.78;;;11.08;100.00
21100;BME280;10708;50.824;4.408;2023-01-04T07:14:20;100790.63;;;11.16;100.00
21100;BME280;10708;50.824;4.408;2023-01-04T07:19:22;100781.84;;;11.15;100.00
21100;BME280;10708;50.824;4.408;2023-01-04T07:24:26;100775.50;;;11.21;100.00
21100;BME280;10708;50.824;4.408;2023-01-04T07:29:29;100800.84;;;11.25;100.00
21100;BME280;10708;50.824;4.408;2023-01-04T07:34:31;100793.63;;;11.30;100.00
21100;BME280;10708;50.824;4.408;2023-01-04T07:39:35;100795.31;;;11.32;100.00
21100;BME280;10708;50.824;4.408;2023-01-04T07:44:37;100790.66;;;11.39;100.00
21100;BME280;10708;50.824;4.408;2023-01-04T07:49:39;100782.56;;;11.45;100.00
21100;BME280;10708;50.824;4.408;2023-01-04T07:54:43;100772.00;;;11.45;100.00
21100;BME280;10708;50.824;4.408;2023-01-04T07:59:46;100767.53;;;11.47;100.00
21100;BME280;10708;50.824;4.408;2023-01-04T08:04:48;100762.19;;;11.48;100.00
21100;BME280;10708;50.824;4.408;2023-01-04T08:09:52;100760.66;;;11.43;100.00
21100;BME280;10708;50.824;4.408;2023-01-04T08:14:54;100777.28;;;11.45;100.00
21100;BME280;10708;50.824;4.408;2023-01-04T08:19:56;100779.88;;;11.46;100.00
21100;BME280;10708;50.824;4.408;2023-01-04T08:25:03;100773.69;;;11.48;100.00
21100;BME280;10708;50.824;4.408;2023-01-04T08:30:08;100777.97;;;11.50;100.00
21100;BME280;10708;50.824;4.408;2023-01-04T08:35:10;100781.47;;;11.51;100.00
21100;BME280;10708;50.824;4.408;2023-01-04T08:40:14;100791.81;;;11.57;100.00
21100;BME280;10708;50.824;4.408;2023-01-04T08:45:16;100792.53;;;11.60;100.00
21100;BME280;10708;50.824;4.408;2023-01-04T08:50:19;100790.59;;;11.65;100.00
21100;BME280;10708;50.824;4.408;2023-01-04T08:55:23;100789.50;;;11.71;100.00
21100;BME280;10708;50.824;4.408;2023-01-04T09:00:25;100774.72;;;11.67;100.00
21100;BME280;10708;50.824;4.408;2023-01-04T09:05:28;100786.69;;;11.77;100.00
21100;BME280;10708;50.824;4.408;2023-01-04T09:10:35;100798.75;;;11.84;100.00
21100;BME280;10708;50.824;4.408;2023-01-04T09:15:38;100781.94;;;11.87;100.00
21100;BME280;10708;50.824;4.408;2023-01-04T09:20:40;100782.66;;;11.90;100.00
21100;BME280;10708;50.824;4.408;2023-01-04T09:25:47;100787.78;;;11.95;100.00
21100;BME280;10708;50.824;4.408;2023-01-04T09:30:50;100793.97;;;11.94;100.00
21100;BME280;10708;50.824;4.408;2023-01-04T09:35:52;100780.84;;;11.92;100.00
21100;BME280;10708;50.824;4.408;2023-01-04T09:41:03;100775.50;;;11.94;100.00
21100;BME280;10708;50.824;4.408;2023-01-04T09:46:10;100794.94;;;11.91;100.00
21100;BME280;10708;50.824;4.408;2023-01-04T09:51:16;100797.00;;;11.83;100.00
21100;BME280;10708;50.824;4.408;2023-01-04T09:56:26;100781.19;;;11.83;100.00
21100;BME280;10708;50.824;4.408;2023-01-04T10:01:43;100782.16;;;11.80;100.00
21100;BME280;10708;50.824;4.408;2023-01-04T10:06:46;100782.03;;;11.83;100.00
21100;BME280;10708;50.824;4.408;2023-01-04T10:12:04;100779.66;;;11.77;100.00
21100;BME280;10708;50.824;4.408;2023-01-04T10:17:17;100796.25;;;11.79;100.00
21100;BME280;10708;50.824;4.408;2023-01-04T10:22:26;100782.16;;;11.80;100.00
21100;BME280;10708;50.824;4.408;2023-01-04T10:27:47;100789.09;;;11.83;100.00
21100;BME280;10708;50.824;4.408;2023-01-04T10:33:01;100776.88;;;11.80;100.00
21100;BME280;10708;50.824;4.408;2023-01-04T10:38:12;100800.75;;;11.77;100.00
21100;BME280;10708;50.824;4.408;2023-01-04T10:43:24;100773.41;;;11.78;100.00
21100;BME280;10708;50.824;4.408;2023-01-04T10:48:35;100777.78;;;11.79;100.00
21100;BME280;10708;50.824;4.408;2023-01-04T10:53:42;100774.22;;;11.80;100.00
21100;BME280;10708;50.824;4.408;2023-01-04T10:58:55;100762.81;;;11.80;100.00
21100;BME280;10708;50.824;4.408;2023-01-04T11:04:03;100756.47;;;11.86;100.00
21100;BME280;10708;50.824;4.408;2023-01-04T11:09:10;100747.44;;;11.91;100.00
21100;BME280;10708;50.824;4.408;2023-01-04T11:14:16;100737.31;;;12.02;100.00
21100;BME280;10708;50.824;4.408;2023-01-04T11:19:19;100746.88;;;12.06;100.00
21100;BME280;10708;50.824;4.408;2023-01-04T11:24:22;100746.34;;;12.18;100.00
21100;BME280;10708;50.824;4.408;2023-01-04T11:29:34;100758.84;;;12.15;100.00
21100;BME280;10708;50.824;4.408;2023-01-04T11:34:49;100747.31;;;12.17;100.00
21100;BME280;10708;50.824;4.408;2023-01-04T11:40:10;100740.34;;;12.15;100.00
21100;BME280;10708;50.824;4.408;2023-01-04T11:45:21;100746.59;;;12.12;100.00
21100;BME280;10708;50.824;4.408;2023-01-04T11:50:34;100745.59;;;12.16;100.00
21100;BME280;10708;50.824;4.408;2023-01-04T11:55:37;100741.22;;;12.15;100.00
21100;BME280;10708;50.824;4.408;2023-01-04T12:00:49;100727.97;;;12.17;100.00
21100;BME280;10708;50.824;4.408;2023-01-04T12:05:51;100742.13;;;12.14;100.00
21100;BME280;10708;50.824;4.408;2023-01-04T12:10:54;100736.84;;;12.14;100.00
21100;BME280;10708;50.824;4.408;2023-01-04T12:16:03;100723.66;;;12.14;100.00
21100;BME280;10708;50.824;4.408;2023-01-04T12:21:13;100720.97;;;12.16;100.00
21100;BME280;10708;50.824;4.408;2023-01-04T12:26:18;100709.47;;;12.17;100.00
21100;BME280;10708;50.824;4.408;2023-01-04T12:31:32;100707.56;;;12.20;100.00
21100;BME280;10708;50.824;4.408;2023-01-04T12:36:57;100706.63;;;12.22;100.00
21100;BME280;10708;50.824;4.408;2023-01-04T12:42:12;100704.97;;;12.19;100.00
21100;BME280;10708;50.824;4.408;2023-01-04T12:47:44;100736.53;;;12.22;100.00
21100;BME280;10708;50.824;4.408;2023-01-04T12:53:04;100706.69;;;12.20;100.00
21100;BME280;10708;50.824;4.408;2023-01-04T13:03:47;100707.50;;;12.22;100.00
21100;BME280;10708;50.824;4.408;2023-01-04T13:08:51;100706.59;;;12.23;100.00
21100;BME280;10708;50.824;4.408;2023-01-04T13:13:58;100708.97;;;12.29;100.00
21100;BME280;10708;50.824;4.408;2023-01-04T13:19:09;100721.13;;;12.33;100.00
21100;BME280;10708;50.824;4.408;2023-01-04T13:24:19;100743.97;;;12.34;100.00
21100;BME280;10708;50.824;4.408;2023-01-04T13:29:25;100722.53;;;12.42;100.00
21100;BME280;10708;50.824;4.408;2023-01-04T13:34:31;100732.06;;;12.46;100.00
21100;BME280;10708;50.824;4.408;2023-01-04T13:39:34;100727.44;;;12.51;100.00
21100;BME280;10708;50.824;4.408;2023-01-04T13:50:28;100719.50;;;12.51;100.00
21100;BME280;10708;50.824;4.408;2023-01-04T13:55:33;100704.41;;;12.54;100.00
21100;BME280;10708;50.824;4.408;2023-01-04T14:00:44;100699.06;;;12.56;100.00
21100;BME280;10708;50.824;4.408;2023-01-04T14:05:50;100699.06;;;12.56;100.00
21100;BME280;10708;50.824;4.408;2023-01-04T14:10:54;100701.81;;;12.53;100.00
21100;BME280;10708;50.824;4.408;2023-01-04T14:16:04;100695.75;;;12.51;100.00
21100;BME280;10708;50.824;4.408;2023-01-04T14:21:17;100688.50;;;12.56;100.00
21100;BME280;10708;50.824;4.408;2023-01-04T14:26:28;100679.78;;;12.54;100.00
21100;BME280;10708;50.824;4.408;2023-01-04T14:31:34;100700.09;;;12.52;100.00
21100;BME280;10708;50.824;4.408;2023-01-04T14:36:40;100692.13;;;12.53;100.00
21100;BME280;10708;50.824;4.408;2023-01-04T14:41:51;100693.97;;;12.51;100.00
21100;BME280;10708;50.824;4.408;2023-01-04T14:46:55;100690.47;;;12.51;100.00
21100;BME280;10708;50.824;4.408;2023-01-04T14:52:00;100681.50;;;12.55;100.00
21100;BME280;10708;50.824;4.408;2023-01-04T14:57:03;100674.56;;;12.52;100.00
21100;BME280;10708;50.824;4.408;2023-01-04T15:02:07;100680.81;;;12.50;100.00
21100;BME280;10708;50.824;4.408;2023-01-04T15:07:32;100695.22;;;12.43;100.00
21100;BME280;10708;50.824;4.408;2023-01-04T15:12:35;100704.59;;;12.50;100.00
21100;BME280;10708;50.824;4.408;2023-01-04T15:17:37;100714.34;;;12.48;100.00
21100;BME280;10708;50.824;4.408;2023-01-04T15:22:41;100729.44;;;12.46;100.00
21100;BME280;10708;50.824;4.408;2023-01-04T15:27:44;100733.97;;;12.42;100.00
21100;BME280;10708;50.824;4.408;2023-01-04T15:32:46;100755.34;;;12.36;100.00
21100;BME280;10708;50.824;4.408;2023-01-04T15:37:50;100766.94;;;12.32;100.00
21100;BME280;10708;50.824;4.408;2023-01-04T15:42:53;100771.38;;;12.32;100.00
21100;BME280;10708;50.824;4.408;2023-01-04T15:48:02;100756.69;;;12.25;100.00
21100;BME280;10708;50.824;4.408;2023-01-04T15:53:06;100747.84;;;12.26;100.00
21100;BME280;10708;50.824;4.408;2023-01-04T15:58:09;100756.69;;;12.25;100.00
21100;BME280;10708;50.824;4.408;2023-01-04T16:03:11;100765.66;;;12.20;100.00
21100;BME280;10708;50.824;4.408;2023-01-04T16:08:15;100764.84;;;12.18;100.00
21100;BME280;10708;50.824;4.408;2023-01-04T16:13:21;100763.16;;;12.17;100.00
21100;BME280;10708;50.824;4.408;2023-01-04T16:18:24;100757.59;;;12.02;100.00
21100;BME280;10708;50.824;4.408;2023-01-04T16:23:31;100758.13;;;12.10;100.00
21100;BME280;10708;50.824;4.408;2023-01-04T16:28:33;100753.78;;;12.09;100.00
21100;BME280;10708;50.824;4.408;2023-01-04T16:33:36;100760.84;;;12.08;100.00
21100;BME280;10708;50.824;4.408;2023-01-04T16:38:43;100762.09;;;11.98;100.00
21100;BME280;10708;50.824;4.408;2023-01-04T16:43:47;100760.06;;;12.06;100.00
21100;BME280;10708;50.824;4.408;2023-01-04T16:48:51;100766.41;;;12.01;100.00
21100;BME280;10708;50.824;4.408;2023-01-04T16:53:55;100763.66;;;12.04;100.00
21100;BME280;10708;50.824;4.408;2023-01-04T16:58:58;100770.88;;;11.99;100.00
21100;BME280;10708;50.824;4.408;2023-01-04T17:04:04;100774.38;;;11.99;100.00
21100;BME280;10708;50.824;4.408;2023-01-04T17:09:12;100775.56;;;11.92;100.00
21100;BME280;10708;50.824;4.408;2023-01-04T17:14:15;100752.03;;;11.86;100.00
21100;BME280;10708;50.824;4.408;2023-01-04T17:19:19;100760.22;;;11.78;100.00
21100;BME280;10708;50.824;4.408;2023-01-04T17:24:22;100738.97;;;11.83;100.00
21100;BME280;10708;50.824;4.408;2023-01-04T17:29:25;100748.75;;;11.79;100.00
21100;BME280;10708;50.824;4.408;2023-01-04T17:34:27;100736.44;;;11.80;100.00
21100;BME280;10708;50.824;4.408;2023-01-04T17:39:31;100748.69;;;11.81;100.00
21100;BME280;10708;50.824;4.408;2023-01-04T17:44:34;100756.41;;;11.87;100.00
21100;BME280;10708;50.824;4.408;2023-01-04T17:49:36;100772.25;;;11.87;100.00
21100;BME280;10708;50.824;4.408;2023-01-04T17:54:41;100790.72;;;11.87;100.00
21100;BME280;10708;50.824;4.408;2023-01-04T17:59:43;100796.84;;;11.88;100.00
21100;BME280;10708;50.824;4.408;2023-01-04T18:04:45;100810.09;;;11.86;100.00
21100;BME280;10708;50.824;4.408;2023-01-04T18:09:49;100806.19;;;11.96;100.00
21100;BME280;10708;50.824;4.408;2023-01-04T18:14:52;100813.47;;;11.90;100.00
21100;BME280;10708;50.824;4.408;2023-01-04T18:19:54;100809.81;;;11.94;100.00
21100;BME280;10708;50.824;4.408;2023-01-04T18:24:59;100819.75;;;11.87;100.00
21100;BME280;10708;50.824;4.408;2023-01-04T18:30:05;100824.94;;;11.89;100.00
21100;BME280;10708;50.824;4.408;2023-01-04T18:35:08;100822.50;;;11.84;100.00
21100;BME280;10708;50.824;4.408;2023-01-04T18:40:13;100833.50;;;11.95;100.00
21100;BME280;10708;50.824;4.408;2023-01-04T18:45:16;100841.53;;;11.92;100.00
21100;BME280;10708;50.824;4.408;2023-01-04T18:50:18;100835.50;;;11.89;100.00
21100;BME280;10708;50.824;4.408;2023-01-04T18:55:22;100838.41;;;11.81;100.00
21100;BME280;10708;50.824;4.408;2023-01-04T19:00:25;100841.78;;;11.86;100.00
21100;BME280;10708;50.824;4.408;2023-01-04T19:05:29;100843.66;;;11.82;100.00
21100;BME280;10708;50.824;4.408;2023-01-04T19:10:33;100830.00;;;11.95;100.00
21100;BME280;10708;50.824;4.408;2023-01-04T19:15:36;100837.22;;;11.90;100.00
21100;BME280;10708;50.824;4.408;2023-01-04T19:20:38;100846.66;;;11.97;100.00
21100;BME280;10708;50.824;4.408;2023-01-04T19:25:42;100839.59;;;11.97;100.00
21100;BME280;10708;50.824;4.408;2023-01-04T19:30:45;100840.38;;;11.99;100.00
21100;BME280;10708;50.824;4.408;2023-01-04T19:35:47;100853.66;;;11.98;100.00
21100;BME280;10708;50.824;4.408;2023-01-04T19:40:55;100851.81;;;12.00;100.00
21100;BME280;10708;50.824;4.408;2023-01-04T19:45:57;100856.34;;;11.96;100.00
21100;BME280;10708;50.824;4.408;2023-01-04T19:51:05;100874.63;;;12.01;100.00
21100;BME280;10708;50.824;4.408;2023-01-04T19:56:11;100864.09;;;12.01;100.00
21100;BME280;10708;50.824;4.408;2023-01-04T20:01:14;100875.78;;;11.94;100.00
21100;BME280;10708;50.824;4.408;2023-01-04T20:06:17;100887.75;;;12.04;100.00
21100;BME280;10708;50.824;4.408;2023-01-04T20:11:21;100874.53;;;12.04;100.00
21100;BME280;10708;50.824;4.408;2023-01-04T20:16:24;100868.75;;;11.94;100.00
21100;BME280;10708;50.824;4.408;2023-01-04T20:21:26;100864.91;;;12.03;100.00
21100;BME280;10708;50.824;4.408;2023-01-04T20:26:30;100877.22;;;12.02;100.00
21100;BME280;10708;50.824;4.408;2023-01-04T20:31:33;100864.13;;;11.99;100.00
21100;BME280;10708;50.824;4.408;2023-01-04T20:36:36;100877.63;;;11.92;100.00
21100;BME280;10708;50.824;4.408;2023-01-04T20:41:41;100884.84;;;11.87;100.00
21100;BME280;10708;50.824;4.408;2023-01-04T20:47:03;100875.09;;;11.89;100.00
21100;BME280;10708;50.824;4.408;2023-01-04T20:52:06;100863.47;;;11.94;100.00
21100;BME280;10708;50.824;4.408;2023-01-04T20:57:10;100863.66;;;11.88;100.00
21100;BME280;10708;50.824;4.408;2023-01-04T21:02:12;100882.47;;;11.79;100.00
21100;BME280;10708;50.824;4.408;2023-01-04T21:07:15;100862.22;;;11.79;100.00
21100;BME280;10708;50.824;4.408;2023-01-04T21:12:19;100866.19;;;11.66;100.00
21100;BME280;10708;50.824;4.408;2023-01-04T21:17:21;100868.66;;;11.71;100.00
21100;BME280;10708;50.824;4.408;2023-01-04T21:22:24;100864.84;;;11.55;100.00
21100;BME280;10708;50.824;4.408;2023-01-04T21:27:28;100866.69;;;11.53;100.00
21100;BME280;10708;50.824;4.408;2023-01-04T21:32:31;100864.34;;;11.43;100.00
21100;BME280;10708;50.824;4.408;2023-01-04T21:37:33;100870.69;;;11.38;100.00
21100;BME280;10708;50.824;4.408;2023-01-04T21:42:37;100873.53;;;11.32;100.00
21100;BME280;10708;50.824;4.408;2023-01-04T21:47:40;100870.31;;;11.24;100.00
21100;BME280;10708;50.824;4.408;2023-01-04T21:52:43;100883.44;;;11.25;100.00
21100;BME280;10708;50.824;4.408;2023-01-04T21:57:47;100882.75;;;11.19;100.00
21100;BME280;10708;50.824;4.408;2023-01-04T22:02:49;100898.72;;;11.16;100.00
21100;BME280;10708;50.824;4.408;2023-01-04T22:07:52;100886.56;;;11.10;100.00
21100;BME280;10708;50.824;4.408;2023-01-04T22:12:56;100895.47;;;11.07;100.00
21100;BME280;10708;50.824;4.408;2023-01-04T22:17:58;100886.75;;;11.05;100.00
21100;BME280;10708;50.824;4.408;2023-01-04T22:23:01;100891.28;;;11.00;100.00
21100;BME280;10708;50.824;4.408;2023-01-04T22:28:05;100883.41;;;10.99;100.00
21100;BME280;10708;50.824;4.408;2023-01-04T22:33:08;100890.63;;;10.94;100.00
21100;BME280;10708;50.824;4.408;2023-01-04T22:38:10;100891.63;;;10.90;100.00
21100;BME280;10708;50.824;4.408;2023-01-04T22:43:14;100878.50;;;10.88;100.00
21100;BME280;10708;50.824;4.408;2023-01-04T22:48:16;100897.06;;;10.85;100.00
21100;BME280;10708;50.824;4.408;2023-01-04T22:53:19;100895.47;;;10.80;100.00
21100;BME280;10708;50.824;4.408;2023-01-04T22:58:23;100905.22;;;10.78;100.00
21100;BME280;10708;50.824;4.408;2023-01-04T23:03:25;100898.00;;;10.83;100.00
21100;BME280;10708;50.824;4.408;2023-01-04T23:08:27;100902.44;;;10.81;100.00
21100;BME280;10708;50.824;4.408;2023-01-04T23:13:33;100914.06;;;10.75;100.00
21100;BME280;10708;50.824;4.408;2023-01-04T23:18:36;100907.63;;;10.84;100.00
21100;BME280;10708;50.824;4.408;2023-01-04T23:23:38;100928.84;;;10.79;100.00
21100;BME280;10708;50.824;4.408;2023-01-04T23:28:43;100912.00;;;10.85;100.00
21100;BME280;10708;50.824;4.408;2023-01-04T23:33:46;100912.81;;;10.87;100.00
21100;BME280;10708;50.824;4.408;2023-01-04T23:38:50;100913.78;;;10.84;100.00
21100;BME280;10708;50.824;4.408;2023-01-04T23:43:54;100920.66;;;10.88;100.00
21100;BME280;10708;50.824;4.408;2023-01-04T23:48:56;100918.09;;;10.87;100.00
21100;BME280;10708;50.824;4.408;2023-01-04T23:53:59;100938.38;;;10.83;100.00
21100;BME280;10708;50.824;4.408;2023-01-04T23:59:03;100938.25;;;10.88;100.00
